Time;durP1;ratioP1;P1;durP2;ratioP2;P2;SDS_P1;SDS_P2;PMS_P1;PMS_P2;Temp;Humidity;BMP_temperature;BMP_pressure;BME280_temperature;BME280_humidity;BME280_pressure;Samples;Min_cycle;Max_cycle;Signal;HPM_P1;HPM_P2
2021/08/14 00:01:14;;;;;;;16.67;7.20;;;;;;;26.95;40.61;101419.08;1715166;82;21085;-43
2021/08/14 00:03:41;;;;;;;16.87;7.10;;;;;;;26.95;40.66;101417.69;1716178;83;21764;-43
2021/08/14 00:06:07;;;;;;;15.53;7.05;;;;;;;26.95;40.72;101417.69;1717741;82;21125;-43
2021/08/14 00:08:33;;;;;;;13.72;7.12;;;;;;;26.95;40.75;101427.46;1717530;82;21169;-45
2021/08/14 00:11:00;;;;;;;12.18;6.78;;;;;;;26.96;40.84;101425.48;1718542;82;21457;-44
2021/08/14 00:13:26;;;;;;;14.63;7.25;;;;;;;26.96;40.86;101423.52;1714977;82;21063;-45
2021/08/14 00:15:52;;;;;;;14.68;6.67;;;;;;;26.96;40.91;101419.33;1716751;82;20889;-47
2021/08/14 00:18:18;;;;;;;12.78;7.20;;;;;;;26.96;40.96;101422.70;1720942;82;21718;-46
2021/08/14 00:20:44;;;;;;;14.20;7.33;;;;;;;26.96;41.02;101431.07;1718050;82;21278;-46
2021/08/14 00:23:10;;;;;;;13.05;6.60;;;;;;;26.96;41.06;101426.30;1715433;82;21472;-44
2021/08/14 00:25:36;;;;;;;14.43;6.80;;;;;;;26.96;41.11;101426.30;1717443;82;21086;-45
2021/08/14 00:28:03;;;;;;;13.88;6.37;;;;;;;26.96;41.16;101435.27;1717068;83;21085;-44
2021/08/14 00:30:29;;;;;;;12.40;6.30;;;;;;;26.96;41.19;101436.66;1713907;82;21048;-43
2021/08/14 00:32:55;;;;;;;9.43;6.20;;;;;;;26.96;41.25;101432.47;1711995;82;21249;-48
2021/08/14 00:35:21;;;;;;;16.10;6.20;;;;;;;26.96;41.28;101427.70;1716190;82;21029;-44
2021/08/14 00:37:47;;;;;;;11.97;6.03;;;;;;;26.97;41.35;101431.31;1717989;83;21007;-44
2021/08/14 00:40:14;;;;;;;11.28;5.65;;;;;;;26.96;41.37;101434.69;1718250;83;21698;-48
2021/08/14 00:42:40;;;;;;;11.73;6.28;;;;;;;26.97;41.43;101431.31;1718387;82;21691;-44
2021/08/14 00:45:08;;;;;;;12.50;6.47;;;;;;;26.96;41.48;101438.88;1719465;82;21075;-43
2021/08/14 00:47:34;;;;;;;10.58;5.87;;;;;;;26.96;41.51;101438.88;1719713;82;21020;-45
2021/08/14 00:50:01;;;;;;;11.63;6.45;;;;;;;26.97;41.56;101435.50;1719726;82;21104;-45
2021/08/14 00:52:27;;;;;;;11.97;5.20;;;;;;;26.96;41.60;101434.69;1717121;83;21537;-43
2021/08/14 00:54:53;;;;;;;11.95;6.00;;;;;;;26.96;41.63;101434.69;1718974;82;21224;-47
2021/08/14 00:57:19;;;;;;;11.95;6.35;;;;;;;26.96;41.69;101438.88;1717655;82;21423;-45
2021/08/14 00:59:46;;;;;;;11.68;6.03;;;;;;;26.95;41.74;101433.05;1717505;82;21219;-45
2021/08/14 01:02:12;;;;;;;12.55;5.85;;;;;;;26.96;41.79;101438.88;1690381;83;21044;-45
2021/08/14 01:04:38;;;;;;;13.08;6.17;;;;;;;26.96;41.82;101437.48;1718856;82;21062;-44
2021/08/14 01:07:04;;;;;;;11.85;5.67;;;;;;;26.96;41.87;101436.66;1722393;82;20909;-47
2021/08/14 01:09:31;;;;;;;11.22;5.58;;;;;;;26.96;41.93;101441.66;1720823;82;21016;-52
2021/08/14 01:11:58;;;;;;;11.20;6.35;;;;;;;26.95;41.94;101442.82;1717098;82;21089;-48
2021/08/14 01:14:24;;;;;;;10.35;6.10;;;;;;;26.96;41.99;101442.24;1714420;82;21065;-45
2021/08/14 01:16:50;;;;;;;10.00;5.20;;;;;;;26.95;42.02;101433.63;1713447;82;21095;-46
2021/08/14 01:19:18;;;;;;;10.82;5.50;;;;;;;26.95;42.09;101435.84;1721393;82;21747;-42
2021/08/14 01:21:52;;;;;;;11.30;5.45;;;;;;;26.94;42.12;101430.05;1716238;82;21326;-42
2021/08/14 01:24:19;;;;;;;9.28;5.53;;;;;;;26.94;42.17;101428.64;1681957;83;21083;-46
2021/08/14 01:26:45;;;;;;;11.35;5.03;;;;;;;26.95;42.19;101426.64;1687207;83;21054;-42
2021/08/14 01:29:11;;;;;;;13.78;5.75;;;;;;;26.93;42.25;101431.20;1712464;82;21064;-43
2021/08/14 01:31:39;;;;;;;10.48;5.03;;;;;;;26.94;42.27;101423.64;1711526;83;21160;-43
2021/08/14 01:34:05;;;;;;;10.40;5.40;;;;;;;26.94;42.32;101426.43;1709235;82;21543;-42
2021/08/14 01:36:31;;;;;;;7.90;5.10;;;;;;;26.94;42.38;101426.43;1710034;83;21053;-43
2021/08/14 01:39:00;;;;;;;10.43;5.45;;;;;;;26.94;42.41;101427.83;1710070;82;21439;-44
2021/08/14 01:41:27;;;;;;;9.60;5.25;;;;;;;26.93;42.45;101424.22;1714246;83;21480;-47
2021/08/14 01:44:07;;;;;;;7.60;4.85;;;;;;;26.93;42.48;101427.59;1715221;82;21014;-46
2021/08/14 01:46:37;;;;;;;10.72;5.30;;;;;;;26.93;42.53;101433.17;1716253;82;21809;-45
2021/08/14 01:49:04;;;;;;;11.30;5.33;;;;;;;26.93;42.58;101431.77;1690511;82;21103;-44
2021/08/14 01:51:30;;;;;;;9.20;4.90;;;;;;;26.92;42.61;101423.97;1694127;84;21455;-43
2021/08/14 01:53:59;;;;;;;8.45;4.65;;;;;;;26.91;42.66;101422.91;1698694;83;21056;-44
2021/08/14 01:56:26;;;;;;;7.22;4.85;;;;;;;26.90;42.71;101419.91;1698174;83;21134;-44
2021/08/14 01:58:52;;;;;;;10.68;4.85;;;;;;;26.90;42.75;101421.30;1696208;83;21311;-44
2021/08/14 02:01:19;;;;;;;8.73;4.62;;;;;;;26.90;42.78;101426.31;1692686;84;21133;-44
2021/08/14 02:03:46;;;;;;;8.43;4.87;;;;;;;26.91;42.84;101427.10;1699959;83;21048;-42
2021/08/14 02:06:16;;;;;;;7.90;5.20;;;;;;;26.90;42.86;101424.09;1696029;83;21105;-44
2021/08/14 02:08:42;;;;;;;9.08;4.78;;;;;;;26.90;42.91;101428.28;1694370;83;21075;-42
2021/08/14 02:11:16;;;;;;;9.30;4.62;;;;;;;26.90;42.94;101433.30;1693447;83;22003;-42
2021/08/14 02:13:43;;;;;;;8.83;4.85;;;;;;;26.90;42.99;101434.69;1732247;80;21084;-45
2021/08/14 02:16:11;;;;;;;7.92;4.70;;;;;;;26.88;43.01;101425.83;1734378;80;21094;-43
2021/08/14 02:18:37;;;;;;;8.18;4.95;;;;;;;26.89;43.05;101434.45;1729598;80;21110;-42
2021/08/14 02:21:04;;;;;;;8.23;4.72;;;;;;;26.88;43.10;101431.41;1729594;80;21447;-42
2021/08/14 02:23:31;;;;;;;9.38;4.70;;;;;;;26.87;43.13;101425.59;1730586;80;22323;-46
2021/08/14 02:25:58;;;;;;;8.63;4.85;;;;;;;26.87;43.17;101428.38;1735375;80;21086;-42
2021/08/14 02:28:24;;;;;;;7.00;4.83;;;;;;;26.87;43.20;101425.59;1731204;80;21036;-46
2021/08/14 02:30:50;;;;;;;8.58;5.05;;;;;;;26.87;43.24;101422.79;1728738;80;21012;-43
2021/08/14 02:33:16;;;;;;;9.08;4.28;;;;;;;26.87;43.28;101427.55;1732303;81;21576;-44
2021/08/14 02:35:43;;;;;;;9.20;4.50;;;;;;;26.86;43.30;101429.56;1704381;82;21994;-43
2021/08/14 02:38:09;;;;;;;7.28;4.12;;;;;;;26.86;43.34;101433.75;1731609;81;21438;-44
2021/08/14 02:40:35;;;;;;;8.95;4.55;;;;;;;26.86;43.37;101434.33;1731507;80;20876;-44
2021/08/14 02:43:03;;;;;;;10.05;4.85;;;;;;;26.87;43.44;101435.94;1734670;80;21551;-44
2021/08/14 02:45:30;;;;;;;6.45;3.92;;;;;;;26.86;43.44;101432.35;1731590;80;21052;-43
2021/08/14 02:47:56;;;;;;;6.35;4.33;;;;;;;26.84;43.46;101429.05;1733848;80;21320;-43
2021/08/14 02:50:23;;;;;;;7.35;4.12;;;;;;;26.85;43.51;101431.30;1735640;80;21008;-44
2021/08/14 02:52:50;;;;;;;7.60;4.37;;;;;;;26.84;43.53;101426.25;1733435;80;21039;-44
2021/08/14 02:55:16;;;;;;;7.80;4.30;;;;;;;26.85;43.56;101423.73;1724953;80;21062;-46
2021/08/14 02:57:42;;;;;;;7.62;3.95;;;;;;;26.83;43.61;101424.03;1723003;80;21055;-45
2021/08/14 03:00:10;;;;;;;8.73;4.20;;;;;;;26.84;43.65;101426.25;1733174;80;21610;-44
2021/08/14 03:02:36;;;;;;;7.22;4.12;;;;;;;26.84;43.66;101430.44;1722980;80;21070;-43
2021/08/14 03:05:03;;;;;;;9.48;4.20;;;;;;;26.83;43.73;101431.02;1734268;80;21016;-44
2021/08/14 03:07:32;;;;;;;7.20;3.65;;;;;;;26.83;43.74;101428.80;1728091;81;21020;-42
2021/08/14 03:09:59;;;;;;;6.75;3.87;;;;;;;26.82;43.78;101439.16;1730418;80;21104;-42
2021/08/14 03:12:25;;;;;;;7.03;3.70;;;;;;;26.83;43.83;101430.20;1736617;80;21617;-43
2021/08/14 03:14:51;;;;;;;6.10;3.95;;;;;;;26.82;43.84;101428.56;1734904;80;21050;-44
2021/08/14 03:17:17;;;;;;;7.72;4.03;;;;;;;26.80;43.87;101421.95;1749221;80;21025;-47
2021/08/14 03:19:43;;;;;;;6.45;3.95;;;;;;;26.81;43.91;101431.95;1740415;81;21015;-44
2021/08/14 03:22:10;;;;;;;6.30;3.80;;;;;;;26.80;43.93;101434.51;1745892;80;21738;-47
2021/08/14 03:24:38;;;;;;;5.70;3.85;;;;;;;26.81;43.97;101436.72;1735119;80;21309;-43
2021/08/14 03:27:05;;;;;;;6.65;4.00;;;;;;;26.79;44.00;101431.47;1746642;80;21086;-45
2021/08/14 03:29:33;;;;;;;6.65;3.72;;;;;;;26.80;44.01;101435.08;1746294;80;21102;-45
2021/08/14 03:31:59;;;;;;;6.15;3.75;;;;;;;26.80;44.06;101437.88;1739578;80;21498;-43
2021/08/14 03:34:25;;;;;;;6.45;3.85;;;;;;;26.78;44.08;101439.61;1741006;80;21187;-45
2021/08/14 03:36:51;;;;;;;7.67;3.90;;;;;;;26.78;44.12;101432.63;1742894;80;21297;-45
2021/08/14 03:39:18;;;;;;;6.10;3.62;;;;;;;26.79;44.17;101439.03;1736388;81;21049;-43
2021/08/14 03:41:44;;;;;;;6.00;3.72;;;;;;;26.79;44.18;101439.03;1739989;80;21140;-44
2021/08/14 03:44:10;;;;;;;7.62;3.75;;;;;;;26.78;44.21;101439.61;1745106;80;21546;-44
2021/08/14 03:46:36;;;;;;;5.60;3.40;;;;;;;26.78;44.24;101440.19;1745881;80;20991;-45
2021/08/14 03:49:03;;;;;;;5.15;3.47;;;;;;;26.78;44.27;101441.58;1738658;80;21139;-42
2021/08/14 03:51:29;;;;;;;6.28;3.75;;;;;;;26.78;44.31;101443.80;1742975;80;21478;-43
2021/08/14 03:53:55;;;;;;;6.03;3.55;;;;;;;26.77;44.33;101439.39;1738188;81;20982;-45
2021/08/14 03:56:21;;;;;;;6.50;3.98;;;;;;;26.77;44.38;101442.19;1741080;80;21103;-43
2021/08/14 03:58:47;;;;;;;6.10;3.17;;;;;;;26.77;44.40;101442.77;1743319;80;20896;-43
2021/08/14 04:01:13;;;;;;;5.75;3.60;;;;;;;26.77;44.43;101447.77;1743807;80;21109;-43
2021/08/14 04:03:39;;;;;;;5.50;3.92;;;;;;;26.76;44.44;101440.55;1742904;80;21645;-43
2021/08/14 04:06:06;;;;;;;5.67;3.37;;;;;;;26.76;44.48;101443.91;1744248;80;21022;-46
2021/08/14 04:08:32;;;;;;;4.58;3.17;;;;;;;26.75;44.51;101440.30;1736278;80;21141;-47
2021/08/14 04:10:58;;;;;;;7.42;4.15;;;;;;;26.75;44.53;101446.47;1746902;80;21010;-46
2021/08/14 04:13:24;;;;;;;5.55;3.35;;;;;;;26.77;44.54;101448.34;1735371;80;21062;-44
2021/08/14 04:15:51;;;;;;;5.97;3.52;;;;;;;26.76;44.57;101445.31;1727131;80;21585;-43
2021/08/14 04:18:17;;;;;;;6.10;3.30;;;;;;;26.75;44.60;101443.67;1726611;80;21044;-43
2021/08/14 04:20:43;;;;;;;6.35;3.75;;;;;;;26.75;44.63;101447.28;1736391;80;21002;-42
2021/08/14 04:23:09;;;;;;;4.95;3.30;;;;;;;26.75;44.64;101447.86;1734208;80;21043;-43
2021/08/14 04:25:35;;;;;;;5.72;3.35;;;;;;;26.75;44.67;101454.27;1736719;80;21590;-49
2021/08/14 04:28:01;;;;;;;5.83;3.25;;;;;;;26.75;44.68;101446.47;1735252;81;21474;-47
2021/08/14 04:30:27;;;;;;;6.12;3.40;;;;;;;26.74;44.72;101445.64;1736606;80;20888;-43
2021/08/14 04:32:53;;;;;;;5.58;3.35;;;;;;;26.75;44.74;101450.66;1727197;80;21483;-44
2021/08/14 04:35:19;;;;;;;6.35;3.40;;;;;;;26.74;44.78;101447.62;1734652;80;21031;-46
2021/08/14 04:37:45;;;;;;;4.87;3.35;;;;;;;26.75;44.79;101454.84;1733120;80;21455;-44
2021/08/14 04:40:14;;;;;;;5.85;3.40;;;;;;;26.74;44.81;101453.20;1723905;80;21097;-44
2021/08/14 04:42:41;;;;;;;6.87;3.50;;;;;;;26.74;44.84;101458.20;1725825;80;21171;-43
2021/08/14 04:45:09;;;;;;;4.45;2.90;;;;;;;26.74;44.83;101458.20;1733852;80;21027;-44
2021/08/14 04:47:35;;;;;;;6.35;3.20;;;;;;;26.73;44.86;101447.41;1726293;80;21020;-43
2021/08/14 04:50:02;;;;;;;5.87;3.15;;;;;;;26.74;44.91;101450.41;1727518;80;21049;-43
2021/08/14 04:52:28;;;;;;;5.50;3.20;;;;;;;26.73;44.90;101453.78;1730837;81;21066;-42
2021/08/14 04:54:55;;;;;;;5.12;3.72;;;;;;;26.74;44.94;101453.20;1730462;80;21029;-43
2021/08/14 04:57:21;;;;;;;6.72;3.27;;;;;;;26.72;44.95;101447.98;1730181;81;21223;-47
2021/08/14 04:59:47;;;;;;;4.62;3.15;;;;;;;26.73;44.99;101448.80;1727609;80;21081;-43
2021/08/14 05:02:13;;;;;;;7.15;3.27;;;;;;;26.73;44.99;101455.78;1705726;82;21506;-42
2021/08/14 05:04:39;;;;;;;4.30;2.95;;;;;;;26.73;45.01;101454.38;1732706;80;20978;-45
2021/08/14 05:07:05;;;;;;;4.42;2.98;;;;;;;26.73;45.04;101461.36;1723154;80;21015;-43
2021/08/14 05:09:37;;;;;;;5.00;3.17;;;;;;;26.73;45.05;101454.38;1725086;80;21102;-47
2021/08/14 05:12:04;;;;;;;5.40;2.98;;;;;;;26.73;45.07;101448.80;1746908;81;21507;-45
2021/08/14 05:14:31;;;;;;;5.58;2.92;;;;;;;26.72;45.07;101453.56;1732889;80;21099;-46
2021/08/14 05:16:57;;;;;;;4.58;3.30;;;;;;;26.73;45.10;101452.98;1731934;80;21494;-45
2021/08/14 05:19:23;;;;;;;5.03;2.80;;;;;;;26.72;45.14;101446.59;1737307;80;21015;-45
2021/08/14 05:21:49;;;;;;;4.33;3.12;;;;;;;26.72;45.14;101453.56;1733941;80;20997;-43
2021/08/14 05:24:15;;;;;;;4.70;3.33;;;;;;;26.72;45.14;101455.53;1707102;82;21608;-44
2021/08/14 05:26:42;;;;;;;4.47;3.10;;;;;;;26.73;45.18;101457.17;1734604;80;21331;-45
2021/08/14 05:29:08;;;;;;;5.20;3.17;;;;;;;26.72;45.21;101461.12;1734707;80;21266;-45
2021/08/14 05:31:35;;;;;;;5.85;3.02;;;;;;;26.73;45.21;101465.55;1725245;80;21133;-44
2021/08/14 05:34:02;;;;;;;4.33;3.12;;;;;;;26.72;45.25;101465.31;1732431;80;21506;-44
2021/08/14 05:36:33;;;;;;;4.72;2.95;;;;;;;26.72;45.27;101465.31;1730302;80;21086;-44
2021/08/14 05:38:59;;;;;;;5.00;2.85;;;;;;;26.72;45.27;101458.33;1734510;81;21117;-46
2021/08/14 05:41:26;;;;;;;4.72;3.05;;;;;;;26.72;45.31;101458.33;1730803;81;21316;-45
2021/08/14 05:43:52;;;;;;;5.12;3.00;;;;;;;26.72;45.32;101452.17;1734124;80;21109;-44
2021/08/14 05:46:18;;;;;;;4.85;3.00;;;;;;;26.72;45.34;101454.14;1729849;80;21508;-43
2021/08/14 05:48:44;;;;;;;5.47;3.17;;;;;;;26.71;45.36;101453.32;1731429;80;21008;-42
2021/08/14 05:51:11;;;;;;;4.12;2.80;;;;;;;26.72;45.38;101452.75;1732579;80;21260;-46
2021/08/14 05:53:38;;;;;;;4.45;3.02;;;;;;;26.71;45.39;101451.92;1727520;80;21590;-47
2021/08/14 05:56:04;;;;;;;4.75;2.67;;;;;;;26.71;45.41;101444.13;1732115;80;21020;-44
2021/08/14 05:58:30;;;;;;;4.22;3.08;;;;;;;26.72;45.44;101444.37;1729189;81;21089;-45
2021/08/14 06:00:57;;;;;;;4.45;2.92;;;;;;;26.72;45.45;101442.97;1733297;80;21009;-44
2021/08/14 06:03:23;;;;;;;4.60;3.05;;;;;;;26.70;45.46;101444.70;1732863;80;21534;-44
2021/08/14 06:05:49;;;;;;;4.97;3.33;;;;;;;26.72;45.47;101447.16;1733042;80;21066;-45
2021/08/14 06:08:15;;;;;;;3.50;2.47;;;;;;;26.72;45.49;101446.59;1727808;80;20981;-43
2021/08/14 06:10:41;;;;;;;4.08;2.92;;;;;;;26.71;45.52;101443.55;1728807;80;20983;-46
2021/08/14 06:13:07;;;;;;;4.08;2.90;;;;;;;26.72;45.52;101441.00;1740521;80;21077;-43
2021/08/14 06:15:33;;;;;;;4.08;3.22;;;;;;;26.71;45.56;101437.97;1750842;80;21103;-42
2021/08/14 06:17:59;;;;;;;3.37;2.55;;;;;;;26.71;45.57;101437.97;1746588;81;21113;-44
2021/08/14 06:20:27;;;;;;;5.60;2.87;;;;;;;26.70;45.59;101432.72;1743893;80;21060;-44
2021/08/14 06:22:53;;;;;;;4.60;3.65;;;;;;;26.72;45.63;101437.39;1747570;80;21021;-45
2021/08/14 06:25:19;;;;;;;7.25;3.85;;;;;;;26.72;45.75;101435.99;1744424;80;21808;-44
2021/08/14 06:27:45;;;;;;;5.78;3.62;;;;;;;26.74;45.90;101436.45;1741494;80;22157;-48
2021/08/14 06:30:13;;;;;;;5.42;3.52;;;;;;;26.74;46.12;101437.84;1747754;80;21068;-49
2021/08/14 06:32:39;;;;;;;7.42;3.72;;;;;;;26.75;46.25;101432.51;1741989;80;21097;-45
2021/08/14 06:35:07;;;;;;;5.87;3.50;;;;;;;26.76;46.38;101431.36;1746787;80;22278;-43
2021/08/14 06:37:44;;;;;;;4.72;3.67;;;;;;;26.76;46.49;101433.56;1756592;80;21129;-45
2021/08/14 06:40:12;;;;;;;5.53;3.50;;;;;;;26.77;46.59;101431.59;1746404;80;21077;-46
2021/08/14 06:42:39;;;;;;;6.00;3.37;;;;;;;26.78;46.65;101426.22;1750198;80;21181;-44
2021/08/14 06:45:07;;;;;;;4.53;3.40;;;;;;;26.77;46.75;101426.02;1745117;80;21148;-45
2021/08/14 06:47:33;;;;;;;5.42;3.55;;;;;;;26.78;46.84;101426.22;1747897;80;21520;-44
2021/08/14 06:49:59;;;;;;;5.75;3.50;;;;;;;26.78;46.92;101426.22;1745064;80;21044;-46
2021/08/14 06:52:25;;;;;;;4.22;3.42;;;;;;;26.81;47.00;101429.75;1747398;80;21168;-45
2021/08/14 06:54:51;;;;;;;5.47;3.85;;;;;;;26.81;47.08;101432.53;1716499;82;21565;-44
2021/08/14 06:57:17;;;;;;;4.28;3.45;;;;;;;26.79;47.13;101431.47;1718048;82;20994;-43
2021/08/14 06:59:44;;;;;;;4.78;3.27;;;;;;;26.81;47.17;101435.33;1716834;82;21086;-45
2021/08/14 07:02:10;;;;;;;6.53;3.98;;;;;;;26.81;47.20;101432.53;1705611;82;21075;-47
2021/08/14 07:04:39;;;;;;;5.08;3.40;;;;;;;26.82;47.24;101433.56;1707150;82;21333;-45
2021/08/14 07:07:05;;;;;;;5.10;3.42;;;;;;;26.82;47.25;101437.75;1718179;82;21648;-44
2021/08/14 07:09:31;;;;;;;5.58;3.87;;;;;;;26.83;47.30;101434.39;1714787;82;21015;-44
2021/08/14 07:11:57;;;;;;;5.40;3.80;;;;;;;26.83;47.32;101436.60;1683976;84;21099;-43
2021/08/14 07:14:24;;;;;;;4.72;3.85;;;;;;;26.85;47.35;101434.08;1744842;81;21599;-45
2021/08/14 07:16:50;;;;;;;5.55;3.98;;;;;;;26.85;47.36;101439.09;1739962;80;22403;-47
2021/08/14 07:19:20;;;;;;;4.97;3.83;;;;;;;26.85;47.39;101432.69;1741142;80;20931;-44
2021/08/14 07:21:47;;;;;;;5.22;3.72;;;;;;;26.85;47.42;101431.30;1715816;82;21020;-47
2021/08/14 07:24:14;;;;;;;4.58;3.60;;;;;;;26.85;47.43;101433.51;1711049;82;21177;-48
2021/08/14 07:26:40;;;;;;;5.72;3.80;;;;;;;26.85;47.45;101433.51;1740172;80;21096;-48
2021/08/14 07:29:06;;;;;;;5.28;3.90;;;;;;;26.86;47.48;101437.94;1744433;80;21086;-52
2021/08/14 07:31:32;;;;;;;4.85;3.80;;;;;;;26.86;47.54;101446.31;1743499;80;21504;-45
2021/08/14 07:33:58;;;;;;;6.87;4.00;;;;;;;26.88;47.63;101444.55;1744495;80;21098;-46
2021/08/14 07:36:25;;;;;;;6.35;4.20;;;;;;;26.89;47.69;101443.40;1735613;81;21129;-43
2021/08/14 07:38:51;;;;;;;4.67;3.50;;;;;;;26.88;47.75;101436.99;1738548;81;21063;-45
2021/08/14 07:41:17;;;;;;;5.95;3.80;;;;;;;26.89;47.83;101435.84;1743353;80;21302;-45
2021/08/14 07:43:43;;;;;;;9.30;4.62;;;;;;;26.90;47.81;101438.06;1738794;80;21098;-43
2021/08/14 07:46:10;;;;;;;7.87;4.65;;;;;;;26.90;47.79;101438.88;1709549;82;21558;-42
2021/08/14 07:48:36;;;;;;;8.63;5.03;;;;;;;26.92;47.78;101437.94;1742922;80;21670;-45
2021/08/14 07:51:02;;;;;;;14.68;6.95;;;;;;;26.92;47.76;101427.34;1744418;81;21037;-44
2021/08/14 07:53:29;;;;;;;15.45;7.83;;;;;;;26.93;47.80;101435.96;1743344;80;23235;-43
2021/08/14 07:55:55;;;;;;;8.20;4.83;;;;;;;26.94;47.76;101433.41;1746822;80;21064;-42
2021/08/14 07:58:21;;;;;;;5.83;3.75;;;;;;;26.95;47.59;101435.02;1739654;81;21593;-40
2021/08/14 08:00:47;;;;;;;9.63;4.75;;;;;;;26.95;47.56;101425.25;1743083;81;21136;-42
2021/08/14 08:03:13;;;;;;;8.55;4.35;;;;;;;26.96;47.56;101422.70;1740498;81;21017;-41
2021/08/14 08:05:40;;;;;;;5.75;4.53;;;;;;;26.95;47.54;101421.88;1746025;81;21141;-44
2021/08/14 08:08:06;;;;;;;7.53;4.20;;;;;;;26.96;47.51;101408.73;1748602;80;20983;-41
2021/08/14 08:10:33;;;;;;;7.10;4.20;;;;;;;26.97;47.49;101421.54;1741757;81;21049;-41
2021/08/14 08:12:59;;;;;;;9.20;6.10;;;;;;;26.96;47.45;101419.33;1745010;81;21143;-45
2021/08/14 08:15:25;;;;;;;12.43;7.67;;;;;;;26.96;47.43;101410.95;1745272;81;20996;-43
2021/08/14 08:17:52;;;;;;;18.95;12.05;;;;;;;26.97;47.41;101416.77;1709848;82;21980;-42
2021/08/14 08:20:18;;;;;;;16.62;11.50;;;;;;;26.96;47.39;101412.34;1742569;80;21561;-43
2021/08/14 08:22:44;;;;;;;17.40;11.40;;;;;;;26.97;47.41;101414.56;1743194;81;21035;-45
2021/08/14 08:25:12;;;;;;;15.32;9.90;;;;;;;26.98;47.43;101417.59;1743602;80;21064;-44
2021/08/14 08:27:41;;;;;;;14.60;9.63;;;;;;;26.97;47.44;101407.00;1742089;80;21073;-43
2021/08/14 08:30:08;;;;;;;15.48;9.38;;;;;;;26.99;47.46;101399.69;1741466;80;21146;-45
2021/08/14 08:32:35;;;;;;;23.05;12.75;;;;;;;26.99;47.44;101400.47;1744201;81;21097;-44
2021/08/14 08:35:01;;;;;;;31.55;17.77;;;;;;;27.01;47.47;101398.73;1743904;81;21090;-43
2021/08/14 08:37:28;;;;;;;17.82;10.85;;;;;;;27.02;47.54;101397.58;1742516;80;21698;-44
2021/08/14 08:39:54;;;;;;;16.42;9.75;;;;;;;27.02;47.61;101398.40;1743077;81;21108;-44
2021/08/14 08:42:20;;;;;;;13.75;8.68;;;;;;;27.04;47.67;101396.64;1741162;80;21686;-46
2021/08/14 08:44:46;;;;;;;13.78;8.85;;;;;;;27.04;47.69;101393.27;1742294;80;21047;-44
2021/08/14 08:47:13;;;;;;;15.38;8.53;;;;;;;27.05;47.70;101394.91;1745153;80;22381;-45
2021/08/14 08:49:43;;;;;;;13.00;7.95;;;;;;;27.05;47.70;101390.72;1743205;80;20906;-45
2021/08/14 08:52:09;;;;;;;11.63;7.22;;;;;;;27.05;47.64;101390.72;1742234;80;21102;-43
2021/08/14 08:54:35;;;;;;;17.15;7.12;;;;;;;27.05;47.61;101390.72;1742720;81;21404;-45
2021/08/14 08:57:02;;;;;;;15.53;7.33;;;;;;;27.05;47.53;101386.53;1740894;81;21045;-43
2021/08/14 08:59:28;;;;;;;11.08;7.42;;;;;;;27.04;47.46;101380.70;1742843;81;21132;-44
2021/08/14 09:01:54;;;;;;;15.38;7.45;;;;;;;27.05;47.40;101380.94;1741254;80;21665;-45
2021/08/14 09:04:28;;;;;;;13.13;7.40;;;;;;;27.05;47.33;101375.94;1744668;80;21061;-44
2021/08/14 09:06:57;;;;;;;9.23;6.03;;;;;;;27.05;47.27;101376.75;1744554;81;21138;-43
2021/08/14 09:09:32;;;;;;;8.85;5.92;;;;;;;27.05;47.13;101371.74;1743123;80;21164;-46
2021/08/14 09:12:06;;;;;;;13.18;6.22;;;;;;;27.05;46.98;101372.56;1747102;80;21442;-44
2021/08/14 09:14:47;;;;;;;9.83;6.15;;;;;;;27.05;46.81;101377.33;1742574;80;21045;-46
2021/08/14 09:17:13;;;;;;;8.35;6.10;;;;;;;27.04;46.57;101375.11;1742136;80;21053;-46
2021/08/14 09:19:39;;;;;;;8.23;5.87;;;;;;;27.04;46.41;101375.69;1742929;81;21874;-44
2021/08/14 09:22:15;;;;;;;9.98;6.35;;;;;;;27.04;46.26;101365.92;1739608;81;20882;-44
2021/08/14 09:24:41;;;;;;;9.18;5.45;;;;;;;27.04;46.17;101368.70;1738735;81;21050;-45
2021/08/14 09:27:08;;;;;;;10.40;5.80;;;;;;;27.03;45.92;101362.91;1737943;80;21037;-47
2021/08/14 09:29:36;;;;;;;6.97;4.83;;;;;;;27.01;45.66;101365.23;1737542;80;21006;-44
2021/08/14 09:32:11;;;;;;;7.45;4.33;;;;;;;27.01;45.43;101354.05;1742794;80;21140;-44
2021/08/14 09:34:43;;;;;;;7.45;4.97;;;;;;;27.00;45.19;101355.21;1745146;80;21179;-44
2021/08/14 09:37:12;;;;;;;6.67;4.47;;;;;;;27.01;45.01;101351.27;1746294;80;21080;-44
2021/08/14 09:40:01;;;;;;;7.05;5.00;;;;;;;27.01;44.84;101355.45;1744654;80;21507;-44
2021/08/14 09:42:29;;;;;;;6.12;4.30;;;;;;;27.01;44.71;101360.46;1742149;80;21081;-44
2021/08/14 09:45:13;;;;;;;7.28;4.90;;;;;;;27.02;44.62;101358.48;1746122;81;22108;-45
2021/08/14 09:47:40;;;;;;;10.18;4.87;;;;;;;27.01;44.50;101356.84;1741046;81;21046;-44
2021/08/14 09:50:07;;;;;;;7.37;4.37;;;;;;;27.00;44.30;101355.21;1742797;82;21173;-43
2021/08/14 09:52:34;;;;;;;7.90;4.30;;;;;;;26.97;44.14;101352.55;1743553;81;21065;-43
2021/08/14 09:55:00;;;;;;;6.30;4.45;;;;;;;26.95;43.96;101348.45;1746578;80;21041;-44
2021/08/14 09:57:26;;;;;;;5.28;3.80;;;;;;;26.93;43.76;101350.22;1746049;81;23233;-43
2021/08/14 09:59:52;;;;;;;7.90;4.87;;;;;;;26.89;43.56;101345.67;1735289;81;21071;-47
2021/08/14 10:02:27;;;;;;;6.55;4.45;;;;;;;26.86;43.44;101341.61;1741073;81;21141;-44
2021/08/14 10:04:55;;;;;;;5.95;3.70;;;;;;;26.82;43.32;101331.66;1731145;80;20999;-44
2021/08/14 10:07:22;;;;;;;5.08;3.77;;;;;;;26.81;43.33;101331.45;1746886;81;21510;-47
2021/08/14 10:09:48;;;;;;;6.58;3.65;;;;;;;26.83;43.15;101333.88;1749736;80;21014;-44
2021/08/14 10:12:17;;;;;;;4.83;4.05;;;;;;;26.82;43.00;101330.27;1742656;81;21447;-43
2021/08/14 10:14:47;;;;;;;6.30;4.03;;;;;;;26.83;42.88;101328.30;1743621;80;21144;-51
2021/08/14 10:17:13;;;;;;;6.12;3.58;;;;;;;26.83;42.76;101334.70;1747984;81;21589;-43
2021/08/14 10:19:39;;;;;;;6.10;3.70;;;;;;;26.80;42.65;101320.05;1736835;81;21075;-44
2021/08/14 10:22:07;;;;;;;6.85;3.95;;;;;;;26.81;42.53;101322.26;1746288;81;21096;-44
2021/08/14 10:24:45;;;;;;;7.03;3.67;;;;;;;26.78;42.38;101320.95;1745097;81;21090;-47
2021/08/14 10:27:16;;;;;;;6.45;3.90;;;;;;;26.76;42.27;101318.30;1739938;81;21119;-43
2021/08/14 10:29:56;;;;;;;7.20;4.10;;;;;;;26.74;42.23;101315.02;1740956;81;21533;-43
2021/08/14 10:32:37;;;;;;;5.30;3.98;;;;;;;26.70;42.18;101309.32;1743097;81;21001;-46
2021/08/14 10:35:20;;;;;;;5.72;4.17;;;;;;;26.69;42.14;101309.69;1736897;80;21489;-45
2021/08/14 10:37:47;;;;;;;8.38;6.35;;;;;;;26.66;42.15;101306.98;1741940;81;21011;-43
2021/08/14 10:40:14;;;;;;;14.23;9.88;;;;;;;26.65;42.13;101305.35;1741553;81;21094;-46
2021/08/14 10:42:57;;;;;;;19.55;11.38;;;;;;;26.64;42.18;101299.56;1750090;80;21540;-44
2021/08/14 10:45:35;;;;;;;23.45;12.25;;;;;;;26.64;42.27;101298.17;1735826;80;21118;-48
2021/08/14 10:48:05;;;;;;;24.02;12.78;;;;;;;26.65;42.38;101295.59;1745874;81;21195;-42
2021/08/14 10:50:36;;;;;;;69.97;38.50;;;;;;;26.65;42.45;101298.37;1743405;81;21074;-45
2021/08/14 10:53:18;;;;;;;20.17;11.60;;;;;;;26.66;42.47;101295.01;1747002;81;21460;-43
2021/08/14 10:55:54;;;;;;;28.02;12.68;;;;;;;26.65;42.50;101289.22;1745028;81;21070;-43
2021/08/14 10:58:25;;;;;;;25.52;12.37;;;;;;;26.64;42.48;101287.00;1746200;80;21034;-43
2021/08/14 11:01:07;;;;;;;29.23;14.30;;;;;;;26.64;42.52;101289.80;1723720;81;23225;-46
2021/08/14 11:03:35;;;;;;;27.60;13.58;;;;;;;26.64;42.53;101284.79;1743114;81;21608;-46
2021/08/14 11:06:32;;;;;;;30.55;14.47;;;;;;;26.62;42.53;101279.55;1746618;80;21891;-43
2021/08/14 11:09:23;;;;;;;22.52;11.97;;;;;;;26.62;42.55;101275.94;1735902;81;37650;-46
2021/08/14 11:12:00;;;;;;;24.75;12.40;;;;;;;26.62;42.53;101275.36;1746777;81;21045;-45
2021/08/14 11:14:42;;;;;;;27.17;13.20;;;;;;;26.62;42.43;101277.33;1739080;80;21136;-47
2021/08/14 11:17:11;;;;;;;29.20;12.63;;;;;;;26.62;42.41;101268.38;1733986;80;21064;-44
2021/08/14 11:19:57;;;;;;;24.77;12.13;;;;;;;26.63;42.38;101266.41;1738504;82;21050;-43
2021/08/14 11:22:30;;;;;;;24.85;11.43;;;;;;;26.62;42.38;101262.80;1720841;81;21085;-44
2021/08/14 11:25:04;;;;;;;23.15;11.00;;;;;;;26.63;42.38;101265.01;1735671;80;21109;-44